sensor_id;sensor_type;location;lat;lon;timestamp;temperature;humidity
6018;DHT22;3037;51.068;13.780;2022-12-01T00:02:05;1.60;99.90
6018;DHT22;3037;51.068;13.780;2022-12-01T00:04:30;1.60;99.90
6018;DHT22;3037;51.068;13.780;2022-12-01T00:06:56;1.50;99.90
6018;DHT22;3037;51.068;13.780;2022-12-01T00:09:21;1.60;99.90
6018;DHT22;3037;51.068;13.780;2022-12-01T00:12:05;1.70;99.90
6018;DHT22;3037;51.068;13.780;2022-12-01T00:14:31;1.80;99.90
6018;DHT22;3037;51.068;13.780;2022-12-01T00:16:57;1.80;99.90
6018;DHT22;3037;51.068;13.780;2022-12-01T00:19:26;1.90;99.90
6018;DHT22;3037;51.068;13.780;2022-12-01T00:21:52;1.80;99.90
6018;DHT22;3037;51.068;13.780;2022-12-01T00:24:18;1.90;99.90
6018;DHT22;3037;51.068;13.780;2022-12-01T00:26:43;1.90;99.90
6018;DHT22;3037;51.068;13.780;2022-12-01T00:29:09;1.90;99.90
6018;DHT22;3037;51.068;13.780;2022-12-01T00:31:35;1.70;99.90
6018;DHT22;3037;51.068;13.780;2022-12-01T00:34:00;1.70;99.90
6018;DHT22;3037;51.068;13.780;2022-12-01T00:36:26;1.70;99.90
6018;DHT22;3037;51.068;13.780;2022-12-01T00:38:55;1.80;99.90
6018;DHT22;3037;51.068;13.780;2022-12-01T00:41:22;1.60;99.90
6018;DHT22;3037;51.068;13.780;2022-12-01T00:43:49;1.70;99.90
6018;DHT22;3037;51.068;13.780;2022-12-01T00:46:15;1.50;99.90
6018;DHT22;3037;51.068;13.780;2022-12-01T00:48:41;1.80;99.90
6018;DHT22;3037;51.068;13.780;2022-12-01T00:51:06;1.80;99.90
6018;DHT22;3037;51.068;13.780;2022-12-01T00:53:32;1.60;99.90
6018;DHT22;3037;51.068;13.780;2022-12-01T00:55:58;1.60;99.90
6018;DHT22;3037;51.068;13.780;2022-12-01T00:58:24;1.30;99.90
6018;DHT22;3037;51.068;13.780;2022-12-01T01:00:57;1.50;99.90
6018;DHT22;3037;51.068;13.780;2022-12-01T01:03:24;1.60;99.90
6018;DHT22;3037;51.068;13.780;2022-12-01T01:05:50;1.60;99.90
6018;DHT22;3037;51.068;13.780;2022-12-01T01:08:15;1.70;99.90
6018;DHT22;3037;51.068;13.780;2022-12-01T01:10:42;1.50;99.90
6018;DHT22;3037;51.068;13.780;2022-12-01T01:13:09;1.50;99.90
6018;DHT22;3037;51.068;13.780;2022-12-01T01:15:34;1.50;99.90
6018;DHT22;3037;51.068;13.780;2022-12-01T01:18:00;1.40;99.90
6018;DHT22;3037;51.068;13.780;2022-12-01T01:20:26;1.40;99.90
6018;DHT22;3037;51.068;13.780;2022-12-01T01:22:51;1.40;99.90
6018;DHT22;3037;51.068;13.780;2022-12-01T01:25:17;1.40;99.90
6018;DHT22;3037;51.068;13.780;2022-12-01T01:27:42;1.40;99.90
6018;DHT22;3037;51.068;13.780;2022-12-01T01:30:08;1.70;99.90
6018;DHT22;3037;51.068;13.780;2022-12-01T01:32:34;1.80;99.90
6018;DHT22;3037;51.068;13.780;2022-12-01T01:34:59;1.80;99.90
6018;DHT22;3037;51.068;13.780;2022-12-01T01:37:25;1.60;99.90
6018;DHT22;3037;51.068;13.780;2022-12-01T01:39:50;1.40;99.90
6018;DHT22;3037;51.068;13.780;2022-12-01T01:42:18;1.30;99.90
6018;DHT22;3037;51.068;13.780;2022-12-01T01:44:53;1.30;99.90
6018;DHT22;3037;51.068;13.780;2022-12-01T01:47:36;1.40;99.90
6018;DHT22;3037;51.068;13.780;2022-12-01T01:50:07;1.60;99.90
6018;DHT22;3037;51.068;13.780;2022-12-01T01:52:37;1.50;99.90
6018;DHT22;3037;51.068;13.780;2022-12-01T01:55:05;1.50;99.90
6018;DHT22;3037;51.068;13.780;2022-12-01T01:57:32;1.20;99.90
6018;DHT22;3037;51.068;13.780;2022-12-01T02:00:07;1.40;99.90
6018;DHT22;3037;51.068;13.780;2022-12-01T02:02:38;1.70;99.90
6018;DHT22;3037;51.068;13.780;2022-12-01T02:05:06;1.70;99.90
6018;DHT22;3037;51.068;13.780;2022-12-01T02:07:36;1.70;99.90
6018;DHT22;3037;51.068;13.780;2022-12-01T02:10:02;1.50;99.90
6018;DHT22;3037;51.068;13.780;2022-12-01T02:15:22;1.60;99.90
6018;DHT22;3037;51.068;13.780;2022-12-01T02:18:01;1.50;99.90
6018;DHT22;3037;51.068;13.780;2022-12-01T02:29:25;1.40;99.90
6018;DHT22;3037;51.068;13.780;2022-12-01T02:31:57;1.30;99.90
6018;DHT22;3037;51.068;13.780;2022-12-01T02:34:42;1.40;99.90
6018;DHT22;3037;51.068;13.780;2022-12-01T02:42:38;1.40;99.90
6018;DHT22;3037;51.068;13.780;2022-12-01T02:45:38;1.50;99.90
6018;DHT22;3037;51.068;13.780;2022-12-01T02:48:12;1.50;99.90
6018;DHT22;3037;51.068;13.780;2022-12-01T02:50:39;1.50;99.90
6018;DHT22;3037;51.068;13.780;2022-12-01T02:53:07;1.40;99.90
6018;DHT22;3037;51.068;13.780;2022-12-01T02:55:34;1.30;99.90
6018;DHT22;3037;51.068;13.780;2022-12-01T02:58:00;1.30;99.90
6018;DHT22;3037;51.068;13.780;2022-12-01T03:00:25;1.50;99.90
6018;DHT22;3037;51.068;13.780;2022-12-01T03:06:23;1.50;99.90
6018;DHT22;3037;51.068;13.780;2022-12-01T03:09:07;1.50;99.90
6018;DHT22;3037;51.068;13.780;2022-12-01T03:12:22;1.70;99.90
6018;DHT22;3037;51.068;13.780;2022-12-01T03:14:41;1.40;99.90
6018;DHT22;3037;51.068;13.780;2022-12-01T03:17:14;1.40;99.90
6018;DHT22;3037;51.068;13.780;2022-12-01T03:20:05;1.70;99.90
6018;DHT22;3037;51.068;13.780;2022-12-01T03:22:43;1.50;99.90
6018;DHT22;3037;51.068;13.780;2022-12-01T03:25:12;1.50;99.90
6018;DHT22;3037;51.068;13.780;2022-12-01T03:27:42;1.50;99.90
6018;DHT22;3037;51.068;13.780;2022-12-01T03:30:10;1.40;99.90
6018;DHT22;3037;51.068;13.780;2022-12-01T03:32:45;1.50;99.90
6018;DHT22;3037;51.068;13.780;2022-12-01T03:35:19;1.40;99.90
6018;DHT22;3037;51.068;13.780;2022-12-01T03:38:06;1.70;99.90
6018;DHT22;3037;51.068;13.780;2022-12-01T03:40:34;1.80;99.90
6018;DHT22;3037;51.068;13.780;2022-12-01T03:43:11;1.70;99.90
6018;DHT22;3037;51.068;13.780;2022-12-01T03:45:53;1.70;99.90
6018;DHT22;3037;51.068;13.780;2022-12-01T03:48:19;1.70;99.90
6018;DHT22;3037;51.068;13.780;2022-12-01T03:51:09;1.50;99.90
6018;DHT22;3037;51.068;13.780;2022-12-01T03:56:28;1.70;99.90
6018;DHT22;3037;51.068;13.780;2022-12-01T03:58:56;1.60;99.90
6018;DHT22;3037;51.068;13.780;2022-12-01T04:01:24;1.50;99.90
6018;DHT22;3037;51.068;13.780;2022-12-01T04:03:50;1.50;99.90
6018;DHT22;3037;51.068;13.780;2022-12-01T04:06:16;1.50;99.90
6018;DHT22;3037;51.068;13.780;2022-12-01T04:08:41;1.70;99.90
6018;DHT22;3037;51.068;13.780;2022-12-01T04:11:07;1.70;99.90
6018;DHT22;3037;51.068;13.780;2022-12-01T04:13:51;1.60;99.90
6018;DHT22;3037;51.068;13.780;2022-12-01T04:16:17;1.50;99.90
6018;DHT22;3037;51.068;13.780;2022-12-01T04:18:42;1.60;99.90
6018;DHT22;3037;51.068;13.780;2022-12-01T04:21:08;2.00;99.90
6018;DHT22;3037;51.068;13.780;2022-12-01T04:23:33;1.90;99.90
6018;DHT22;3037;51.068;13.780;2022-12-01T04:26:18;1.80;99.90
6018;DHT22;3037;51.068;13.780;2022-12-01T04:28:43;1.80;99.90
6018;DHT22;3037;51.068;13.780;2022-12-01T04:31:09;1.70;99.90
6018;DHT22;3037;51.068;13.780;2022-12-01T04:33:34;1.90;99.90
6018;DHT22;3037;51.068;13.780;2022-12-01T04:36:00;2.00;99.90
6018;DHT22;3037;51.068;13.780;2022-12-01T04:38:26;1.90;99.90
6018;DHT22;3037;51.068;13.780;2022-12-01T04:40:52;2.10;99.90
6018;DHT22;3037;51.068;13.780;2022-12-01T04:43:18;2.10;99.90
6018;DHT22;3037;51.068;13.780;2022-12-01T04:45:43;1.90;99.90
6018;DHT22;3037;51.068;13.780;2022-12-01T04:48:09;1.70;99.90
6018;DHT22;3037;51.068;13.780;2022-12-01T04:50:35;2.20;99.90
6018;DHT22;3037;51.068;13.780;2022-12-01T04:53:00;2.10;99.90
6018;DHT22;3037;51.068;13.780;2022-12-01T04:55:26;1.90;99.90
6018;DHT22;3037;51.068;13.780;2022-12-01T04:57:51;2.10;99.90
6018;DHT22;3037;51.068;13.780;2022-12-01T05:00:17;2.20;99.90
6018;DHT22;3037;51.068;13.780;2022-12-01T05:02:43;2.20;99.90
6018;DHT22;3037;51.068;13.780;2022-12-01T05:05:10;1.90;99.90
6018;DHT22;3037;51.068;13.780;2022-12-01T05:07:35;1.90;99.90
6018;DHT22;3037;51.068;13.780;2022-12-01T05:10:02;1.90;99.90
6018;DHT22;3037;51.068;13.780;2022-12-01T05:12:27;1.70;99.90
6018;DHT22;3037;51.068;13.780;2022-12-01T05:14:53;1.90;99.90
6018;DHT22;3037;51.068;13.780;2022-12-01T05:17:18;2.10;99.90
6018;DHT22;3037;51.068;13.780;2022-12-01T05:19:44;2.20;99.90
6018;DHT22;3037;51.068;13.780;2022-12-01T05:22:28;1.90;99.90
6018;DHT22;3037;51.068;13.780;2022-12-01T05:24:53;2.00;99.90
6018;DHT22;3037;51.068;13.780;2022-12-01T05:27:19;2.00;99.90
6018;DHT22;3037;51.068;13.780;2022-12-01T05:29:44;2.10;99.90
6018;DHT22;3037;51.068;13.780;2022-12-01T05:32:10;1.90;99.90
6018;DHT22;3037;51.068;13.780;2022-12-01T05:34:36;1.90;99.90
6018;DHT22;3037;51.068;13.780;2022-12-01T05:37:01;1.80;99.90
6018;DHT22;3037;51.068;13.780;2022-12-01T05:39:27;1.80;99.90
6018;DHT22;3037;51.068;13.780;2022-12-01T05:41:52;1.70;99.90
6018;DHT22;3037;51.068;13.780;2022-12-01T05:44:18;1.80;99.90
6018;DHT22;3037;51.068;13.780;2022-12-01T05:46:44;1.90;99.90
6018;DHT22;3037;51.068;13.780;2022-12-01T05:49:09;2.10;99.90
6018;DHT22;3037;51.068;13.780;2022-12-01T05:51:35;2.00;99.90
6018;DHT22;3037;51.068;13.780;2022-12-01T05:54:01;1.80;99.90
6018;DHT22;3037;51.068;13.780;2022-12-01T05:56:26;1.80;99.90
6018;DHT22;3037;51.068;13.780;2022-12-01T05:58:52;2.00;99.90
6018;DHT22;3037;51.068;13.780;2022-12-01T06:01:17;2.00;99.90
6018;DHT22;3037;51.068;13.780;2022-12-01T06:03:43;2.00;99.90
6018;DHT22;3037;51.068;13.780;2022-12-01T06:06:09;2.00;99.90
6018;DHT22;3037;51.068;13.780;2022-12-01T06:08:34;2.20;99.90
6018;DHT22;3037;51.068;13.780;2022-12-01T06:11:00;2.00;99.90
6018;DHT22;3037;51.068;13.780;2022-12-01T06:13:25;2.00;99.90
6018;DHT22;3037;51.068;13.780;2022-12-01T06:16:09;1.70;99.90
6018;DHT22;3037;51.068;13.780;2022-12-01T06:18:37;1.60;99.90
6018;DHT22;3037;51.068;13.780;2022-12-01T06:21:03;1.40;99.90
6018;DHT22;3037;51.068;13.780;2022-12-01T06:23:30;1.50;99.90
6018;DHT22;3037;51.068;13.780;2022-12-01T06:25:55;1.50;99.90
6018;DHT22;3037;51.068;13.780;2022-12-01T06:28:21;1.50;99.90
6018;DHT22;3037;51.068;13.780;2022-12-01T06:30:47;1.60;99.90
6018;DHT22;3037;51.068;13.780;2022-12-01T06:33:12;1.70;99.90
6018;DHT22;3037;51.068;13.780;2022-12-01T06:35:38;1.60;99.90
6018;DHT22;3037;51.068;13.780;2022-12-01T06:38:03;1.50;99.90
6018;DHT22;3037;51.068;13.780;2022-12-01T06:40:29;1.50;99.90
6018;DHT22;3037;51.068;13.780;2022-12-01T06:42:58;1.60;99.90
6018;DHT22;3037;51.068;13.780;2022-12-01T06:45:24;1.80;99.90
6018;DHT22;3037;51.068;13.780;2022-12-01T06:47:53;1.60;99.90
6018;DHT22;3037;51.068;13.780;2022-12-01T06:50:18;1.50;99.90
6018;DHT22;3037;51.068;13.780;2022-12-01T06:52:44;1.50;99.90
6018;DHT22;3037;51.068;13.780;2022-12-01T06:55:10;1.70;99.90
6018;DHT22;3037;51.068;13.780;2022-12-01T06:57:35;1.50;99.90
6018;DHT22;3037;51.068;13.780;2022-12-01T07:00:01;1.50;99.90
6018;DHT22;3037;51.068;13.780;2022-12-01T07:02:28;1.70;99.90
6018;DHT22;3037;51.068;13.780;2022-12-01T07:04:54;1.50;99.90
6018;DHT22;3037;51.068;13.780;2022-12-01T07:07:19;1.50;99.90
6018;DHT22;3037;51.068;13.780;2022-12-01T07:09:45;1.60;99.90
6018;DHT22;3037;51.068;13.780;2022-12-01T07:12:10;2.00;99.90
6018;DHT22;3037;51.068;13.780;2022-12-01T07:14:36;1.90;99.90
6018;DHT22;3037;51.068;13.780;2022-12-01T07:17:02;1.90;99.90
6018;DHT22;3037;51.068;13.780;2022-12-01T07:19:27;1.70;99.90
6018;DHT22;3037;51.068;13.780;2022-12-01T07:21:53;1.60;99.90
6018;DHT22;3037;51.068;13.780;2022-12-01T07:24:18;1.50;99.90
6018;DHT22;3037;51.068;13.780;2022-12-01T07:26:45;1.60;99.90
6018;DHT22;3037;51.068;13.780;2022-12-01T07:29:11;1.80;99.90
6018;DHT22;3037;51.068;13.780;2022-12-01T07:31:37;1.80;99.90
6018;DHT22;3037;51.068;13.780;2022-12-01T07:34:03;2.20;99.90
6018;DHT22;3037;51.068;13.780;2022-12-01T07:36:29;2.00;99.90
6018;DHT22;3037;51.068;13.780;2022-12-01T07:38:55;2.00;99.90
6018;DHT22;3037;51.068;13.780;2022-12-01T07:41:21;1.60;99.90
6018;DHT22;3037;51.068;13.780;2022-12-01T07:43:46;1.70;99.90
6018;DHT22;3037;51.068;13.780;2022-12-01T07:46:13;1.70;99.90
6018;DHT22;3037;51.068;13.780;2022-12-01T07:48:39;1.80;99.90
6018;DHT22;3037;51.068;13.780;2022-12-01T07:51:11;1.70;99.90
6018;DHT22;3037;51.068;13.780;2022-12-01T07:53:37;1.80;99.90
6018;DHT22;3037;51.068;13.780;2022-12-01T07:56:04;1.90;99.90
6018;DHT22;3037;51.068;13.780;2022-12-01T07:58:30;1.70;99.90
6018;DHT22;3037;51.068;13.780;2022-12-01T08:00:56;1.90;99.90
6018;DHT22;3037;51.068;13.780;2022-12-01T08:03:22;2.10;99.90
6018;DHT22;3037;51.068;13.780;2022-12-01T08:05:55;2.10;99.90
6018;DHT22;3037;51.068;13.780;2022-12-01T08:08:21;2.10;99.90
6018;DHT22;3037;51.068;13.780;2022-12-01T08:10:47;2.20;99.90
6018;DHT22;3037;51.068;13.780;2022-12-01T08:13:13;2.00;99.90
6018;DHT22;3037;51.068;13.780;2022-12-01T08:15:38;2.20;99.90
6018;DHT22;3037;51.068;13.780;2022-12-01T08:18:04;2.00;99.90
6018;DHT22;3037;51.068;13.780;2022-12-01T08:20:29;2.10;99.90
6018;DHT22;3037;51.068;13.780;2022-12-01T08:22:55;2.10;99.90
6018;DHT22;3037;51.068;13.780;2022-12-01T08:25:24;2.40;99.90
6018;DHT22;3037;51.068;13.780;2022-12-01T08:27:49;2.40;99.90
6018;DHT22;3037;51.068;13.780;2022-12-01T08:30:15;2.40;99.90
6018;DHT22;3037;51.068;13.780;2022-12-01T08:32:40;2.30;99.90
6018;DHT22;3037;51.068;13.780;2022-12-01T08:35:06;2.40;99.90
6018;DHT22;3037;51.068;13.780;2022-12-01T08:37:32;2.20;99.90
6018;DHT22;3037;51.068;13.780;2022-12-01T08:39:57;2.40;99.90
6018;DHT22;3037;51.068;13.780;2022-12-01T08:42:23;2.50;99.90
6018;DHT22;3037;51.068;13.780;2022-12-01T08:44:48;2.10;99.90
6018;DHT22;3037;51.068;13.780;2022-12-01T08:47:14;2.10;99.90
6018;DHT22;3037;51.068;13.780;2022-12-01T08:49:39;2.30;99.90
6018;DHT22;3037;51.068;13.780;2022-12-01T08:52:05;2.10;99.90
6018;DHT22;3037;51.068;13.780;2022-12-01T08:54:31;1.90;99.90
6018;DHT22;3037;51.068;13.780;2022-12-01T08:56:56;1.90;99.90
6018;DHT22;3037;51.068;13.780;2022-12-01T08:59:22;1.90;99.90
6018;DHT22;3037;51.068;13.780;2022-12-01T09:01:47;2.10;99.90
6018;DHT22;3037;51.068;13.780;2022-12-01T09:04:20;2.10;99.90
6018;DHT22;3037;51.068;13.780;2022-12-01T09:06:47;2.00;99.90
6018;DHT22;3037;51.068;13.780;2022-12-01T09:09:19;2.20;99.90
6018;DHT22;3037;51.068;13.780;2022-12-01T09:11:46;1.90;99.90
6018;DHT22;3037;51.068;13.780;2022-12-01T09:14:13;2.00;99.90
6018;DHT22;3037;51.068;13.780;2022-12-01T09:16:40;2.00;99.90
6018;DHT22;3037;51.068;13.780;2022-12-01T09:19:06;2.00;99.90
6018;DHT22;3037;51.068;13.780;2022-12-01T09:21:33;1.90;99.90
6018;DHT22;3037;51.068;13.780;2022-12-01T09:24:00;2.30;99.90
6018;DHT22;3037;51.068;13.780;2022-12-01T09:26:26;2.30;99.90
6018;DHT22;3037;51.068;13.780;2022-12-01T09:28:54;2.20;99.90
6018;DHT22;3037;51.068;13.780;2022-12-01T09:31:21;2.00;99.90
6018;DHT22;3037;51.068;13.780;2022-12-01T09:33:52;2.10;99.90
6018;DHT22;3037;51.068;13.780;2022-12-01T09:36:18;2.30;99.90
6018;DHT22;3037;51.068;13.780;2022-12-01T09:38:43;2.40;99.90
6018;DHT22;3037;51.068;13.780;2022-12-01T09:41:38;2.50;99.90
6018;DHT22;3037;51.068;13.780;2022-12-01T09:44:41;2.60;99.90
6018;DHT22;3037;51.068;13.780;2022-12-01T09:47:28;2.30;99.90
6018;DHT22;3037;51.068;13.780;2022-12-01T09:52:33;2.10;99.90
6018;DHT22;3037;51.068;13.780;2022-12-01T09:55:00;2.70;99.90
6018;DHT22;3037;51.068;13.780;2022-12-01T09:57:30;2.40;99.90
6018;DHT22;3037;51.068;13.780;2022-12-01T09:59:57;2.50;99.90
6018;DHT22;3037;51.068;13.780;2022-12-01T10:02:31;2.50;99.90
6018;DHT22;3037;51.068;13.780;2022-12-01T10:05:00;2.40;99.90
6018;DHT22;3037;51.068;13.780;2022-12-01T10:07:35;2.20;99.90
6018;DHT22;3037;51.068;13.780;2022-12-01T10:10:11;2.20;99.90
6018;DHT22;3037;51.068;13.780;2022-12-01T10:12:39;2.20;99.90
6018;DHT22;3037;51.068;13.780;2022-12-01T10:18:02;2.50;99.90
6018;DHT22;3037;51.068;13.780;2022-12-01T10:25:59;2.00;99.90
6018;DHT22;3037;51.068;13.780;2022-12-01T10:32:03;2.60;99.90
6018;DHT22;3037;51.068;13.780;2022-12-01T10:34:10;2.50;99.90
6018;DHT22;3037;51.068;13.780;2022-12-01T10:36:38;2.70;99.90
6018;DHT22;3037;51.068;13.780;2022-12-01T10:39:05;2.50;99.90
6018;DHT22;3037;51.068;13.780;2022-12-01T10:41:34;2.50;99.90
6018;DHT22;3037;51.068;13.780;2022-12-01T10:44:03;2.70;99.90
6018;DHT22;3037;51.068;13.780;2022-12-01T10:49:09;2.50;99.90
6018;DHT22;3037;51.068;13.780;2022-12-01T10:51:55;2.80;99.90
6018;DHT22;3037;51.068;13.780;2022-12-01T10:54:27;2.80;99.90
6018;DHT22;3037;51.068;13.780;2022-12-01T10:56:56;2.80;99.90
6018;DHT22;3037;51.068;13.780;2022-12-01T10:59:36;2.60;99.90
6018;DHT22;3037;51.068;13.780;2022-12-01T11:02:05;3.00;99.90
6018;DHT22;3037;51.068;13.780;2022-12-01T11:07:15;2.80;99.90
6018;DHT22;3037;51.068;13.780;2022-12-01T11:09:44;2.70;99.90
6018;DHT22;3037;51.068;13.780;2022-12-01T11:12:14;2.80;99.90
6018;DHT22;3037;51.068;13.780;2022-12-01T11:14:51;3.00;99.90
6018;DHT22;3037;51.068;13.780;2022-12-01T11:17:40;2.80;99.90
6018;DHT22;3037;51.068;13.780;2022-12-01T11:20:32;3.20;99.90
6018;DHT22;3037;51.068;13.780;2022-12-01T11:28:26;2.70;99.90
6018;DHT22;3037;51.068;13.780;2022-12-01T11:31:06;2.90;99.90
6018;DHT22;3037;51.068;13.780;2022-12-01T11:33:49;2.90;99.90
6018;DHT22;3037;51.068;13.780;2022-12-01T11:36:29;2.80;99.90
6018;DHT22;3037;51.068;13.780;2022-12-01T11:38:59;2.40;99.90
6018;DHT22;3037;51.068;13.780;2022-12-01T11:41:35;2.40;99.90
6018;DHT22;3037;51.068;13.780;2022-12-01T11:44:04;2.50;99.90
6018;DHT22;3037;51.068;13.780;2022-12-01T11:46:40;2.70;99.90
6018;DHT22;3037;51.068;13.780;2022-12-01T11:49:21;2.50;99.90
6018;DHT22;3037;51.068;13.780;2022-12-01T11:51:48;2.80;99.90
6018;DHT22;3037;51.068;13.780;2022-12-01T11:54:19;3.10;99.90
6018;DHT22;3037;51.068;13.780;2022-12-01T11:56:47;2.60;99.90
6018;DHT22;3037;51.068;13.780;2022-12-01T11:59:21;2.30;99.90
6018;DHT22;3037;51.068;13.780;2022-12-01T12:05:14;2.90;99.90
6018;DHT22;3037;51.068;13.780;2022-12-01T12:07:58;2.80;99.90
6018;DHT22;3037;51.068;13.780;2022-12-01T12:13:33;2.90;99.90
6018;DHT22;3037;51.068;13.780;2022-12-01T12:24:11;2.70;99.90
6018;DHT22;3037;51.068;13.780;2022-12-01T12:26:48;2.70;99.90
6018;DHT22;3037;51.068;13.780;2022-12-01T12:29:46;2.80;99.90
6018;DHT22;3037;51.068;13.780;2022-12-01T12:32:31;3.10;99.90
6018;DHT22;3037;51.068;13.780;2022-12-01T12:35:23;2.90;99.90
6018;DHT22;3037;51.068;13.780;2022-12-01T12:40:42;3.00;99.90
6018;DHT22;3037;51.068;13.780;2022-12-01T12:43:21;2.70;99.90
6018;DHT22;3037;51.068;13.780;2022-12-01T12:45:56;2.60;99.90
6018;DHT22;3037;51.068;13.780;2022-12-01T12:51:11;2.90;99.90
6018;DHT22;3037;51.068;13.780;2022-12-01T12:54:00;3.10;99.90
6018;DHT22;3037;51.068;13.780;2022-12-01T12:56:29;2.80;99.90
6018;DHT22;3037;51.068;13.780;2022-12-01T12:59:07;3.10;99.90
6018;DHT22;3037;51.068;13.780;2022-12-01T13:01:43;2.90;99.90
6018;DHT22;3037;51.068;13.780;2022-12-01T13:04:17;2.90;99.90
6018;DHT22;3037;51.068;13.780;2022-12-01T13:06:50;2.90;99.90
6018;DHT22;3037;51.068;13.780;2022-12-01T13:12:19;2.80;99.90
6018;DHT22;3037;51.068;13.780;2022-12-01T13:14:51;2.80;99.90
6018;DHT22;3037;51.068;13.780;2022-12-01T13:17:25;2.80;99.90
6018;DHT22;3037;51.068;13.780;2022-12-01T13:19:52;2.70;99.90
6018;DHT22;3037;51.068;13.780;2022-12-01T13:22:20;2.80;99.90
6018;DHT22;3037;51.068;13.780;2022-12-01T13:24:48;2.80;99.90
6018;DHT22;3037;51.068;13.780;2022-12-01T13:27:22;3.00;99.90
6018;DHT22;3037;51.068;13.780;2022-12-01T13:29:51;2.90;99.90
6018;DHT22;3037;51.068;13.780;2022-12-01T13:32:34;2.70;99.90
6018;DHT22;3037;51.068;13.780;2022-12-01T13:35:06;2.70;99.90
6018;DHT22;3037;51.068;13.780;2022-12-01T13:37:35;2.90;99.90
6018;DHT22;3037;51.068;13.780;2022-12-01T13:40:24;2.60;99.90
6018;DHT22;3037;51.068;13.780;2022-12-01T13:43:02;2.40;99.90
6018;DHT22;3037;51.068;13.780;2022-12-01T13:45:33;2.50;99.90
6018;DHT22;3037;51.068;13.780;2022-12-01T13:48:01;2.60;99.90
6018;DHT22;3037;51.068;13.780;2022-12-01T13:53:24;2.70;99.90
6018;DHT22;3037;51.068;13.780;2022-12-01T14:08:58;2.50;99.90
6018;DHT22;3037;51.068;13.780;2022-12-01T14:11:27;2.60;99.90
6018;DHT22;3037;51.068;13.780;2022-12-01T14:16:46;2.60;99.90
6018;DHT22;3037;51.068;13.780;2022-12-01T14:19:45;2.50;99.90
6018;DHT22;3037;51.068;13.780;2022-12-01T14:22:32;2.50;99.90
6018;DHT22;3037;51.068;13.780;2022-12-01T14:24:58;2.70;99.90
6018;DHT22;3037;51.068;13.780;2022-12-01T14:27:39;2.80;99.90
6018;DHT22;3037;51.068;13.780;2022-12-01T14:33:41;2.50;99.90
6018;DHT22;3037;51.068;13.780;2022-12-01T14:36:20;2.50;99.90
6018;DHT22;3037;51.068;13.780;2022-12-01T14:38:48;2.70;99.90
6018;DHT22;3037;51.068;13.780;2022-12-01T14:41:24;2.40;99.90
6018;DHT22;3037;51.068;13.780;2022-12-01T14:43:52;2.20;99.90
6018;DHT22;3037;51.068;13.780;2022-12-01T14:46:45;2.30;99.90
6018;DHT22;3037;51.068;13.780;2022-12-01T14:49:18;2.30;99.90
6018;DHT22;3037;51.068;13.780;2022-12-01T14:51:47;2.30;99.90
6018;DHT22;3037;51.068;13.780;2022-12-01T14:54:24;2.40;99.90
6018;DHT22;3037;51.068;13.780;2022-12-01T14:56:53;2.30;99.90
6018;DHT22;3037;51.068;13.780;2022-12-01T14:59:22;2.00;99.90
6018;DHT22;3037;51.068;13.780;2022-12-01T15:01:50;2.10;99.90
6018;DHT22;3037;51.068;13.780;2022-12-01T15:04:17;2.40;99.90
6018;DHT22;3037;51.068;13.780;2022-12-01T15:06:43;2.50;99.90
6018;DHT22;3037;51.068;13.780;2022-12-01T15:09:17;2.40;99.90
6018;DHT22;3037;51.068;13.780;2022-12-01T15:11:57;2.40;99.90
6018;DHT22;3037;51.068;13.780;2022-12-01T15:14:37;2.30;99.90
6018;DHT22;3037;51.068;13.780;2022-12-01T15:17:04;2.40;99.90
6018;DHT22;3037;51.068;13.780;2022-12-01T15:19:34;2.30;99.90
6018;DHT22;3037;51.068;13.780;2022-12-01T15:22:11;2.40;99.90
6018;DHT22;3037;51.068;13.780;2022-12-01T15:24:38;2.40;99.90
6018;DHT22;3037;51.068;13.780;2022-12-01T15:27:03;2.60;99.90
6018;DHT22;3037;51.068;13.780;2022-12-01T15:29:33;2.40;99.90
6018;DHT22;3037;51.068;13.780;2022-12-01T15:32:01;2.30;99.90
6018;DHT22;3037;51.068;13.780;2022-12-01T15:34:40;2.20;99.90
6018;DHT22;3037;51.068;13.780;2022-12-01T15:37:10;2.20;99.90
6018;DHT22;3037;51.068;13.780;2022-12-01T15:39:47;2.20;99.90
6018;DHT22;3037;51.068;13.780;2022-12-01T15:42:24;2.20;99.90
6018;DHT22;3037;51.068;13.780;2022-12-01T15:47:43;2.40;99.90
6018;DHT22;3037;51.068;13.780;2022-12-01T15:50:28;2.10;99.90
6018;DHT22;3037;51.068;13.780;2022-12-01T15:52:56;2.30;99.90
6018;DHT22;3037;51.068;13.780;2022-12-01T15:55:37;2.20;99.90
6018;DHT22;3037;51.068;13.780;2022-12-01T15:58:07;3.50;99.90
6018;DHT22;3037;51.068;13.780;2022-12-01T16:00:34;2.20;99.90
6018;DHT22;3037;51.068;13.780;2022-12-01T16:03:00;2.10;99.90
6018;DHT22;3037;51.068;13.780;2022-12-01T16:05:29;2.10;99.90
6018;DHT22;3037;51.068;13.780;2022-12-01T16:07:55;2.20;99.90
6018;DHT22;3037;51.068;13.780;2022-12-01T16:10:26;2.40;99.90
6018;DHT22;3037;51.068;13.780;2022-12-01T16:12:52;2.20;99.90
6018;DHT22;3037;51.068;13.780;2022-12-01T16:15:18;2.20;99.90
6018;DHT22;3037;51.068;13.780;2022-12-01T16:17:51;2.10;99.90
6018;DHT22;3037;51.068;13.780;2022-12-01T16:20:34;2.20;99.90
6018;DHT22;3037;51.068;13.780;2022-12-01T16:23:08;2.30;99.90
6018;DHT22;3037;51.068;13.780;2022-12-01T16:25:37;2.00;99.90
6018;DHT22;3037;51.068;13.780;2022-12-01T16:28:05;2.00;99.90
6018;DHT22;3037;51.068;13.780;2022-12-01T16:30:38;2.00;99.90
6018;DHT22;3037;51.068;13.780;2022-12-01T16:33:18;2.30;99.90
6018;DHT22;3037;51.068;13.780;2022-12-01T16:35:45;2.50;99.90
6018;DHT22;3037;51.068;13.780;2022-12-01T16:38:16;2.50;99.90
6018;DHT22;3037;51.068;13.780;2022-12-01T16:40:46;2.30;99.90
6018;DHT22;3037;51.068;13.780;2022-12-01T16:43:17;2.30;99.90
6018;DHT22;3037;51.068;13.780;2022-12-01T16:45:44;2.50;99.90
6018;DHT22;3037;51.068;13.780;2022-12-01T16:48:10;2.50;99.90
6018;DHT22;3037;51.068;13.780;2022-12-01T16:50:37;2.50;99.90
6018;DHT22;3037;51.068;13.780;2022-12-01T16:53:02;2.20;99.90
6018;DHT22;3037;51.068;13.780;2022-12-01T16:58:17;3.60;99.90
6018;DHT22;3037;51.068;13.780;2022-12-01T17:00:42;2.60;99.90
6018;DHT22;3037;51.068;13.780;2022-12-01T17:03:10;2.30;99.90
6018;DHT22;3037;51.068;13.780;2022-12-01T17:05:36;2.20;99.90
6018;DHT22;3037;51.068;13.780;2022-12-01T17:08:02;2.50;99.90
6018;DHT22;3037;51.068;13.780;2022-12-01T17:10:27;2.60;99.90
6018;DHT22;3037;51.068;13.780;2022-12-01T17:12:53;2.40;99.90
6018;DHT22;3037;51.068;13.780;2022-12-01T17:15:19;2.10;99.90
6018;DHT22;3037;51.068;13.780;2022-12-01T17:17:44;2.20;99.90
6018;DHT22;3037;51.068;13.780;2022-12-01T17:20:10;2.30;99.90
6018;DHT22;3037;51.068;13.780;2022-12-01T17:22:36;2.40;99.90
6018;DHT22;3037;51.068;13.780;2022-12-01T17:25:02;2.40;99.90
6018;DHT22;3037;51.068;13.780;2022-12-01T17:27:28;2.40;99.90
6018;DHT22;3037;51.068;13.780;2022-12-01T17:29:55;2.50;99.90
6018;DHT22;3037;51.068;13.780;2022-12-01T17:32:23;2.50;99.90
6018;DHT22;3037;51.068;13.780;2022-12-01T17:34:49;2.60;99.90
6018;DHT22;3037;51.068;13.780;2022-12-01T17:37:14;2.50;99.90
6018;DHT22;3037;51.068;13.780;2022-12-01T17:39:40;2.50;99.90
6018;DHT22;3037;51.068;13.780;2022-12-01T17:42:06;2.50;99.90
6018;DHT22;3037;51.068;13.780;2022-12-01T17:44:32;2.50;99.90
6018;DHT22;3037;51.068;13.780;2022-12-01T17:46:58;2.40;99.90
6018;DHT22;3037;51.068;13.780;2022-12-01T17:49:23;2.40;99.90
6018;DHT22;3037;51.068;13.780;2022-12-01T17:51:49;2.60;99.90
6018;DHT22;3037;51.068;13.780;2022-12-01T17:54:14;4.10;99.90
6018;DHT22;3037;51.068;13.780;2022-12-01T17:56:40;4.50;99.90
6018;DHT22;3037;51.068;13.780;2022-12-01T17:59:06;5.10;99.90